Laughlin Air Force Base, TX

10:20 CDT le 22 octobre 2014 (GMT -0500)
Del Rio Laughlin AFB | Change Station
CLOSE
Current Station
Aéroport
Location: Del Rio Laughlin AFB,
Altitude: 1083 ft
Stations météo à proximité

Alt. 1083 ft 29.36 °N, 100.78 °W | Updated 22 minutes ago

Couvert
Couvert
69 ° F
Paraît 69 ° F
N
6
Vent Variable Vent de ESE

Aujourd'hui
Haut(e) -- | Bas -- ° F
--% Risque de précip.
Hier
Haut(e) -- | Bas -- ° F
Precip. -- pouce
7:49 AM 7:05 PM
Lune descendante, 2% visible
Pression 30.08 pouce
Visibilité 10.0 Miles terrestres
Nuages Nuageux 6500 ft
Couvert 8000 ft
Point de rosée 56 ° F
Humidité 63%
Précipitations 0.00 pouce
Profondeur de la couche neigeuse Non disponible.
UV 1 sur 12
Pollen 6.30 sur 12
Qualité de l'air Non disponible.
Flu Activity Sporadic
METAR KDLF 221458Z AUTO 12005KT 10SM BKN065 OVC080 21/14 A3011 RMK AO2 SLP186 T02070135 52022 $

More Conditions Fewer Conditions

Pression 30.08 pouce
Visibilité 10.0 Miles terrestres
Nuages Nuageux 6500 ft
Couvert 8000 ft
Point de rosée 56 ° F
Humidité 63%
Précipitations 0.00 pouce
Profondeur de la couche neigeuse Non disponible.
UV 1 sur 12
Pollen 6.30 sur 12
Qualité de l'air Non disponible.
Flu Activity Sporadic
METAR KDLF 221458Z AUTO 12005KT 10SM BKN065 OVC080 21/14 A3011 RMK AO2 SLP186 T02070135 52022 $

More Conditions Fewer Conditions

Nowcast | as of 8:58 am CDT on October 22, 2014

Isolated light showers will continue across the Rio Grande plains...southern Edwards Plateau and northern Hill Country through 11 am CDT. This activity will move northeast around 15 mph. Rainfall totals will generally be a few hundredths of an inch or less.

×

10-Day Weather Forecast

Almanac

Astronomie

Oct. 22, 2014 Lever Coucher
Temps réel 07:49 CDT 19:05 CDT
Crépuscule civil 07:24 CDT 19:29 CDT
Crépuscule nautique 06:57 CDT 19:57 CDT
Crépuscule astronomique 06:29 CDT 20:25 CDT
Lune 06:37 CDT 18:29 CDT
Durée de lumière visible 12h 04m
Longueur du jour
11h 16m
Tomorrow will be 1m 38s shorter.
Lune descendante, 2% of the Moon is Illuminated
Aujourd'hui
Lune descendante
Oct 23
Nouveau
Oct 30
Premier quartier
Nov 6
Pleine lune
Nov 14
Dernier quartier

Extrêmes aujourd'hui

State Highs State Lows

Community

WunderPhotos

Upload Photos

1,763,949 Photos téléchargées !

Nearby

Épaisseur de neige

Station Depth Altitude
Pas de nouvelles chutes de neige

Activité sismique

Ville Distance Mag. Time & Date
No recent earthquake activity has been reported nearby.
Minimum magnitude displayed is 2.5.

Températures des eaux côtières

Lieu Température
Aucun rapport de station

Stations météo à proximité